createdAt,value
2018-09-08T00:00:55.816Z,21.60
2018-09-08T00:03:24.163Z,21.60
2018-09-08T00:05:52.444Z,21.60
2018-09-08T00:08:20.715Z,21.60
2018-09-08T00:10:49.026Z,21.60
2018-09-08T00:13:17.259Z,21.60
2018-09-08T00:15:50.918Z,21.60
2018-09-08T00:18:24.685Z,21.50
2018-09-08T00:20:58.260Z,21.50
2018-09-08T00:23:31.899Z,21.50
2018-09-08T00:26:05.516Z,21.40
2018-09-08T00:30:41.620Z,21.40
2018-09-08T00:33:09.877Z,21.40
2018-09-08T00:35:38.295Z,21.30
2018-09-08T00:38:06.547Z,21.30
2018-09-08T00:40:34.844Z,21.30
2018-09-08T00:43:03.111Z,21.30
2018-09-08T00:45:31.425Z,21.30
2018-09-08T00:47:59.687Z,21.40
2018-09-08T00:50:27.952Z,21.40
2018-09-08T00:52:56.374Z,21.40
2018-09-08T00:55:24.663Z,21.40
2018-09-08T00:57:52.941Z,21.40
2018-09-08T01:00:21.204Z,21.40
2018-09-08T01:02:49.644Z,21.40
2018-09-08T01:05:17.903Z,21.30
2018-09-08T01:07:46.190Z,21.30
2018-09-08T01:10:14.468Z,21.30
2018-09-08T01:12:42.744Z,21.20
2018-09-08T01:15:11.057Z,21.20
2018-09-08T01:17:39.363Z,21.20
2018-09-08T01:20:07.712Z,21.20
2018-09-08T01:22:36.181Z,21.10
2018-09-08T01:25:04.535Z,21.10
2018-09-08T01:27:32.959Z,21.00
2018-09-08T01:30:01.547Z,21.00
2018-09-08T01:32:29.856Z,21.00
2018-09-08T01:34:58.199Z,20.90
2018-09-08T01:37:26.627Z,20.80
2018-09-08T01:39:55.149Z,20.70
2018-09-08T01:42:23.464Z,20.70
2018-09-08T01:44:51.987Z,20.60
2018-09-08T01:47:20.428Z,20.60
2018-09-08T01:49:48.790Z,20.50
2018-09-08T01:52:17.099Z,20.40
2018-09-08T01:54:45.401Z,20.40
2018-09-08T01:57:13.731Z,20.30
2018-09-08T01:59:42.025Z,20.30
2018-09-08T02:02:10.411Z,20.20
2018-09-08T02:04:38.752Z,20.10
2018-09-08T02:07:07.072Z,20.10
2018-09-08T02:09:35.361Z,20.00
2018-09-08T02:12:04.023Z,20.00
2018-09-08T02:14:32.491Z,19.90
2018-09-08T02:17:00.840Z,20.00
2018-09-08T02:19:29.288Z,19.90
2018-09-08T02:21:57.586Z,19.90
2018-09-08T02:24:25.883Z,19.80
2018-09-08T02:26:54.201Z,19.80
2018-09-08T02:29:23.572Z,19.80
2018-09-08T02:31:51.883Z,19.70
2018-09-08T02:34:20.249Z,19.70
2018-09-08T02:36:48.531Z,19.70
2018-09-08T02:39:16.851Z,19.60
2018-09-08T02:41:45.164Z,19.60
2018-09-08T02:44:13.555Z,19.60
2018-09-08T02:46:41.846Z,19.60
2018-09-08T02:49:10.127Z,19.50
2018-09-08T02:51:37.388Z,19.50
2018-09-08T02:54:04.630Z,19.50
2018-09-08T02:56:31.895Z,19.40
2018-09-08T02:58:59.131Z,19.30
2018-09-08T03:01:26.469Z,19.30
2018-09-08T03:03:53.720Z,19.20
2018-09-08T03:06:20.978Z,19.20
2018-09-08T03:08:48.220Z,19.20
2018-09-08T03:11:15.479Z,19.10
2018-09-08T03:13:42.744Z,19.00
2018-09-08T03:16:09.997Z,18.90
2018-09-08T03:18:37.236Z,18.80
2018-09-08T03:21:04.495Z,18.70
2018-09-08T03:23:31.771Z,18.70
2018-09-08T03:25:59.040Z,18.70
2018-09-08T03:28:26.303Z,18.70
2018-09-08T03:30:53.532Z,18.70
2018-09-08T03:33:20.835Z,18.70
2018-09-08T03:35:48.070Z,18.60
2018-09-08T03:38:15.325Z,18.60
2018-09-08T03:40:42.581Z,18.60
2018-09-08T03:43:09.828Z,18.60
2018-09-08T03:45:37.063Z,18.50
2018-09-08T03:48:04.380Z,18.50
2018-09-08T03:50:31.884Z,18.50
2018-09-08T03:52:59.212Z,18.40
2018-09-08T03:55:26.451Z,18.40
2018-09-08T03:57:53.700Z,18.40
2018-09-08T04:00:20.935Z,18.40
2018-09-08T04:02:49.247Z,18.30
2018-09-08T04:05:17.572Z,18.30
2018-09-08T04:07:45.971Z,18.20
2018-09-08T04:10:14.252Z,18.20
2018-09-08T04:12:42.588Z,18.20
2018-09-08T04:15:10.912Z,18.20
2018-09-08T04:17:39.227Z,18.10
2018-09-08T04:20:07.539Z,18.10
2018-09-08T04:22:36.004Z,18.00
2018-09-08T04:25:06.015Z,18.00
2018-09-08T04:27:34.384Z,17.90
2018-09-08T04:30:02.930Z,17.90
2018-09-08T04:32:31.316Z,17.80
2018-09-08T04:34:59.691Z,17.80
2018-09-08T04:37:28.076Z,17.80
2018-09-08T04:39:56.431Z,17.70
2018-09-08T04:42:24.721Z,17.60
2018-09-08T04:44:53.143Z,17.50
2018-09-08T04:47:21.418Z,17.50
2018-09-08T04:49:49.782Z,17.50
2018-09-08T04:52:18.068Z,17.40
2018-09-08T04:54:46.521Z,17.40
2018-09-08T04:57:15.001Z,17.40
2018-09-08T04:59:43.279Z,17.40
2018-09-08T05:02:11.551Z,17.50
2018-09-08T05:04:39.965Z,17.50
2018-09-08T05:07:08.284Z,17.50
2018-09-08T05:09:36.592Z,17.50
2018-09-08T05:12:04.896Z,17.40
2018-09-08T05:14:33.232Z,17.40
2018-09-08T05:17:01.830Z,17.50
2018-09-08T05:19:30.308Z,17.40
2018-09-08T05:21:58.589Z,17.40
2018-09-08T05:24:26.931Z,17.30
2018-09-08T05:26:55.187Z,17.40
2018-09-08T05:29:23.559Z,17.50
2018-09-08T05:31:51.936Z,17.50
2018-09-08T05:34:20.232Z,17.50
2018-09-08T05:36:48.535Z,17.40
2018-09-08T05:39:16.879Z,17.30
2018-09-08T05:41:45.221Z,17.30
2018-09-08T05:44:13.567Z,17.30
2018-09-08T05:46:41.887Z,17.40
2018-09-08T05:49:10.191Z,17.40
2018-09-08T05:51:38.489Z,17.50
2018-09-08T05:54:06.807Z,17.50
2018-09-08T05:56:35.106Z,17.50
2018-09-08T05:59:03.425Z,17.40
2018-09-08T06:01:31.972Z,17.30
2018-09-08T06:04:00.469Z,17.30
2018-09-08T06:06:29.240Z,17.50
2018-09-08T06:08:57.571Z,17.50
2018-09-08T06:11:25.855Z,17.60
2018-09-08T06:13:54.893Z,17.70
2018-09-08T06:16:23.155Z,17.70
2018-09-08T06:18:51.590Z,17.80
2018-09-08T06:21:19.883Z,17.90
2018-09-08T06:23:48.159Z,17.90
2018-09-08T06:26:16.482Z,18.00
2018-09-08T06:28:44.769Z,18.10
2018-09-08T06:31:13.073Z,18.20
2018-09-08T06:33:41.392Z,18.30
2018-09-08T06:36:09.644Z,18.40
2018-09-08T06:38:37.953Z,18.50
2018-09-08T06:41:06.727Z,18.60
2018-09-08T06:43:35.278Z,18.70
2018-09-08T06:46:03.768Z,18.90
2018-09-08T06:48:32.052Z,19.00
2018-09-08T06:51:01.036Z,19.00
2018-09-08T06:53:29.302Z,19.10
2018-09-08T06:55:57.775Z,19.10
2018-09-08T06:58:26.096Z,19.30
2018-09-08T07:00:54.631Z,19.30
2018-09-08T07:03:22.943Z,19.40
2018-09-08T07:05:51.208Z,19.50
2018-09-08T07:08:19.639Z,19.60
2018-09-08T07:10:48.349Z,19.70
2018-09-08T07:13:16.628Z,19.90
2018-09-08T07:15:45.152Z,20.00
2018-09-08T07:18:13.451Z,20.10
2018-09-08T07:20:41.861Z,20.30
2018-09-08T07:23:10.254Z,20.30
2018-09-08T07:25:38.596Z,20.50
2018-09-08T07:28:06.939Z,20.60
2018-09-08T07:30:35.268Z,20.70
2018-09-08T07:33:03.617Z,20.90
2018-09-08T07:35:32.000Z,21.00
2018-09-08T07:38:00.575Z,21.20
2018-09-08T07:40:28.959Z,21.40
2018-09-08T07:42:57.952Z,21.50
2018-09-08T07:45:26.592Z,21.60
2018-09-08T07:47:54.916Z,21.60
2018-09-08T07:50:24.889Z,21.70
2018-09-08T07:52:53.260Z,21.70
2018-09-08T07:55:21.680Z,21.80
2018-09-08T07:57:49.978Z,21.90
2018-09-08T08:00:18.402Z,22.00
2018-09-08T08:02:46.973Z,22.20
2018-09-08T08:05:15.291Z,22.30
2018-09-08T08:07:43.706Z,22.40
2018-09-08T08:10:12.018Z,22.60
2018-09-08T08:12:40.375Z,22.90
2018-09-08T08:15:08.696Z,23.30
2018-09-08T08:17:36.995Z,23.90
2018-09-08T08:20:05.552Z,24.40
2018-09-08T08:22:33.893Z,24.90
2018-09-08T08:25:02.365Z,25.50
2018-09-08T08:27:30.707Z,26.00
2018-09-08T08:29:59.016Z,26.50
2018-09-08T08:32:27.444Z,27.10
2018-09-08T08:34:55.995Z,27.80
2018-09-08T08:37:24.336Z,28.40
2018-09-08T08:39:52.671Z,29.10
2018-09-08T08:42:20.960Z,29.70
2018-09-08T08:44:49.262Z,30.30
2018-09-08T08:47:17.648Z,30.80
2018-09-08T08:50:51.068Z,31.20
2018-09-08T08:53:30.739Z,31.60
2018-09-08T08:55:59.046Z,32.10
2018-09-08T08:58:27.336Z,32.50
2018-09-08T09:00:55.661Z,32.80
2018-09-08T09:03:23.937Z,33.10
2018-09-08T09:05:52.251Z,33.30
2018-09-08T09:08:21.080Z,33.40
2018-09-08T09:10:48.927Z,33.30
2018-09-08T09:13:17.271Z,33.10
2018-09-08T09:15:45.583Z,32.90
2018-09-08T09:18:23.880Z,32.90
2018-09-08T09:21:03.683Z,32.90
2018-09-08T09:23:43.287Z,32.80
2018-09-08T09:26:11.572Z,32.40
2018-09-08T09:28:40.248Z,32.30
2018-09-08T09:31:08.653Z,32.10
2018-09-08T09:33:37.163Z,32.00
2018-09-08T09:36:05.972Z,32.00
2018-09-08T09:38:34.332Z,32.00
2018-09-08T09:41:02.719Z,32.00
2018-09-08T09:43:31.063Z,31.80
2018-09-08T09:46:01.048Z,31.50
2018-09-08T09:48:29.364Z,31.40
2018-09-08T09:50:57.669Z,31.20
2018-09-08T09:53:25.954Z,31.10
2018-09-08T09:55:54.229Z,30.90
2018-09-08T09:58:22.575Z,30.80
2018-09-08T10:00:56.209Z,30.70
2018-09-08T10:03:24.810Z,30.50
2018-09-08T10:05:53.088Z,30.40
2018-09-08T10:08:21.452Z,30.40
2018-09-08T10:10:49.842Z,30.30
2018-09-08T10:13:18.141Z,30.30
2018-09-08T10:15:46.559Z,30.40
2018-09-08T10:18:14.963Z,30.40
2018-09-08T10:20:43.453Z,30.80
2018-09-08T10:23:11.841Z,31.10
2018-09-08T10:25:40.148Z,31.50
2018-09-08T10:28:08.459Z,31.90
2018-09-08T10:30:36.907Z,32.20
2018-09-08T10:33:05.286Z,32.60
2018-09-08T10:35:33.834Z,33.20
2018-09-08T10:38:02.173Z,33.80
2018-09-08T10:40:30.548Z,34.60
2018-09-08T10:42:59.012Z,35.30
2018-09-08T10:45:27.303Z,36.00
2018-09-08T10:47:55.603Z,36.80
2018-09-08T10:50:23.935Z,37.40
2018-09-08T10:52:52.371Z,38.00
2018-09-08T10:55:20.671Z,38.70
2018-09-08T10:57:48.995Z,39.30
2018-09-08T11:00:17.288Z,39.90
2018-09-08T11:02:45.947Z,40.50
2018-09-08T11:05:14.029Z,41.10
2018-09-08T11:07:42.354Z,41.80
2018-09-08T11:10:10.667Z,42.30
2018-09-08T11:12:38.959Z,42.90
2018-09-08T11:15:08.376Z,43.50
2018-09-08T11:17:36.807Z,44.10
2018-09-08T11:20:05.988Z,44.70
2018-09-08T11:22:34.350Z,45.20
2018-09-08T11:25:02.636Z,45.50
2018-09-08T11:27:31.001Z,45.90
2018-09-08T11:29:59.323Z,45.90
2018-09-08T11:32:27.704Z,45.80
2018-09-08T11:34:56.029Z,45.90
2018-09-08T11:37:24.317Z,46.10
2018-09-08T11:39:52.651Z,46.30
2018-09-08T11:42:20.943Z,46.70
2018-09-08T11:44:49.292Z,46.90
2018-09-08T11:47:17.677Z,46.80
2018-09-08T11:49:45.980Z,46.70
2018-09-08T11:52:14.491Z,47.00
2018-09-08T11:54:42.778Z,47.10
2018-09-08T11:57:11.091Z,47.00
2018-09-08T11:59:39.539Z,46.90
2018-09-08T12:02:07.850Z,47.00
2018-09-08T12:04:36.083Z,47.00
2018-09-08T12:07:04.427Z,47.20
2018-09-08T12:09:33.298Z,47.20
2018-09-08T12:12:01.856Z,47.20
2018-09-08T12:14:30.465Z,47.20
2018-09-08T12:16:58.732Z,47.50
2018-09-08T12:19:27.019Z,47.60
2018-09-08T12:21:55.308Z,47.40
2018-09-08T12:24:23.600Z,47.40
2018-09-08T12:26:51.900Z,47.50
2018-09-08T12:29:20.271Z,47.70
2018-09-08T12:31:48.588Z,48.00
2018-09-08T12:34:16.872Z,48.30
2018-09-08T12:36:45.155Z,48.40
2018-09-08T12:39:13.495Z,48.50
2018-09-08T12:41:41.783Z,48.60
2018-09-08T12:44:10.067Z,48.10
2018-09-08T12:46:38.332Z,47.70
2018-09-08T12:49:06.639Z,47.60
2018-09-08T12:51:34.920Z,47.80
2018-09-08T12:54:03.551Z,48.10
2018-09-08T12:56:31.878Z,48.40
2018-09-08T12:59:00.442Z,48.50
2018-09-08T13:01:28.739Z,48.50
2018-09-08T13:03:57.024Z,48.60
2018-09-08T13:06:25.295Z,48.70
2018-09-08T13:08:53.745Z,48.70
2018-09-08T13:11:22.227Z,49.00
2018-09-08T13:13:50.639Z,49.10
2018-09-08T13:16:19.220Z,49.20
2018-09-08T13:18:47.715Z,49.20
2018-09-08T13:21:16.077Z,49.00
2018-09-08T13:23:44.520Z,48.70
2018-09-08T13:26:12.796Z,48.20
2018-09-08T13:28:41.212Z,47.30
2018-09-08T13:31:09.491Z,47.20
2018-09-08T13:33:37.793Z,47.40
2018-09-08T13:36:06.244Z,47.70
2018-09-08T13:38:34.670Z,48.00
2018-09-08T13:41:03.059Z,48.40
2018-09-08T13:43:31.372Z,48.50
2018-09-08T13:46:00.415Z,48.60
2018-09-08T13:48:28.808Z,48.20
2018-09-08T13:50:57.275Z,48.00
2018-09-08T13:53:25.650Z,47.60
2018-09-08T13:55:54.141Z,47.50
2018-09-08T13:58:22.577Z,47.50
2018-09-08T14:00:51.311Z,47.50
2018-09-08T14:03:19.619Z,47.30
2018-09-08T14:05:47.944Z,47.30
2018-09-08T14:08:17.422Z,47.40
2018-09-08T14:10:46.648Z,47.50
2018-09-08T14:13:15.007Z,47.70
2018-09-08T14:15:43.359Z,47.70
2018-09-08T14:18:11.692Z,47.80
2018-09-08T14:20:40.004Z,47.80
2018-09-08T14:23:08.275Z,47.90
2018-09-08T14:25:36.663Z,47.70
2018-09-08T14:28:05.377Z,47.20
2018-09-08T14:30:33.724Z,46.70
2018-09-08T14:33:02.076Z,46.20
2018-09-08T14:35:30.482Z,45.50
2018-09-08T14:37:58.775Z,45.00
2018-09-08T14:40:27.294Z,44.20
2018-09-08T14:42:55.763Z,43.20
2018-09-08T14:45:24.061Z,42.30
2018-09-08T14:47:52.393Z,41.00
2018-09-08T14:50:20.639Z,39.90
2018-09-08T14:52:49.021Z,38.80
2018-09-08T14:55:17.305Z,37.70
2018-09-08T14:57:45.580Z,36.80
2018-09-08T15:00:13.869Z,36.00
2018-09-08T15:02:42.180Z,35.40
2018-09-08T15:05:10.456Z,34.80
2018-09-08T15:07:38.747Z,34.20
2018-09-08T15:10:07.069Z,33.70
2018-09-08T15:12:35.449Z,33.40
2018-09-08T15:15:03.915Z,33.10
2018-09-08T15:17:32.815Z,32.80
2018-09-08T15:20:01.343Z,32.60
2018-09-08T15:22:29.701Z,32.50
2018-09-08T15:24:58.024Z,32.20
2018-09-08T15:27:26.349Z,32.00
2018-09-08T15:29:54.681Z,31.70
2018-09-08T15:32:22.943Z,31.30
2018-09-08T15:34:51.241Z,31.10
2018-09-08T15:37:19.619Z,30.90
2018-09-08T15:39:47.942Z,30.70
2018-09-08T15:42:16.210Z,30.50
2018-09-08T15:44:44.508Z,30.30
2018-09-08T15:47:12.779Z,30.00
2018-09-08T15:49:41.428Z,29.80
2018-09-08T15:52:09.809Z,29.70
2018-09-08T15:54:38.111Z,29.70
2018-09-08T15:57:06.439Z,29.70
2018-09-08T15:59:34.882Z,29.60
2018-09-08T16:02:03.389Z,29.60
2018-09-08T16:04:31.863Z,29.40
2018-09-08T16:07:00.103Z,29.30
2018-09-08T16:09:28.430Z,29.10
2018-09-08T16:11:57.357Z,29.00
2018-09-08T16:14:25.720Z,28.90
2018-09-08T16:16:54.049Z,28.80
2018-09-08T16:19:22.417Z,28.70
2018-09-08T16:21:50.785Z,28.70
2018-09-08T16:24:19.097Z,28.70
2018-09-08T16:26:47.400Z,28.60
2018-09-08T16:29:15.674Z,28.50
2018-09-08T16:31:43.952Z,28.30
2018-09-08T16:34:12.250Z,28.10
2018-09-08T16:36:40.596Z,28.00
2018-09-08T16:39:10.511Z,27.90
2018-09-08T16:41:38.960Z,27.90
2018-09-08T16:44:08.179Z,27.90
2018-09-08T16:46:36.993Z,27.90
2018-09-08T16:49:06.019Z,27.90
2018-09-08T16:51:34.719Z,27.90
2018-09-08T16:54:03.710Z,27.80
2018-09-08T16:56:32.243Z,27.80
2018-09-08T16:59:01.014Z,27.70
2018-09-08T17:01:29.921Z,27.60
2018-09-08T17:03:58.232Z,27.60
2018-09-08T17:06:26.521Z,27.60
2018-09-08T17:08:54.952Z,27.50
2018-09-08T17:11:23.260Z,27.40
2018-09-08T17:13:51.612Z,27.30
2018-09-08T17:16:19.976Z,27.30
2018-09-08T17:18:48.371Z,27.20
2018-09-08T17:21:16.745Z,27.20
2018-09-08T17:23:45.108Z,27.10
2018-09-08T17:26:13.458Z,27.00
2018-09-08T17:28:41.784Z,26.90
2018-09-08T17:31:10.163Z,26.90
2018-09-08T17:33:38.744Z,26.90
2018-09-08T17:36:07.796Z,26.80
2018-09-08T17:38:36.300Z,26.80
2018-09-08T17:41:04.757Z,26.70
2018-09-08T17:43:33.063Z,26.70
2018-09-08T17:46:01.748Z,26.60
2018-09-08T17:48:30.056Z,26.60
2018-09-08T17:50:58.481Z,26.60
2018-09-08T17:53:26.800Z,26.50
2018-09-08T17:55:55.396Z,26.50
2018-09-08T17:58:23.696Z,26.40
2018-09-08T18:00:52.088Z,26.40
2018-09-08T18:03:20.363Z,26.30
2018-09-08T18:05:48.915Z,26.30
2018-09-08T18:08:23.678Z,26.20
2018-09-08T18:10:52.143Z,26.20
2018-09-08T18:13:20.450Z,26.20
2018-09-08T18:15:48.758Z,26.10
2018-09-08T18:18:17.089Z,26.00
2018-09-08T18:20:45.533Z,25.90
2018-09-08T18:23:13.996Z,25.90
2018-09-08T18:25:42.512Z,25.90
2018-09-08T18:28:10.810Z,25.80
2018-09-08T18:30:39.216Z,25.80
2018-09-08T18:33:07.543Z,25.70
2018-09-08T18:35:35.927Z,25.70
2018-09-08T18:38:04.352Z,25.70
2018-09-08T18:40:32.688Z,25.70
2018-09-08T18:43:01.015Z,25.70
2018-09-08T18:45:29.435Z,25.60
2018-09-08T18:47:57.996Z,25.60
2018-09-08T18:50:26.437Z,25.60
2018-09-08T18:52:54.837Z,25.60
2018-09-08T18:55:23.175Z,25.50
2018-09-08T18:57:51.647Z,25.50
2018-09-08T19:00:20.022Z,25.50
2018-09-08T19:02:48.347Z,25.50
2018-09-08T19:05:16.657Z,25.40
2018-09-08T19:07:44.965Z,25.40
2018-09-08T19:10:13.284Z,25.40
2018-09-08T19:12:41.609Z,25.40
2018-09-08T19:15:15.092Z,25.40
2018-09-08T19:17:44.076Z,25.30
2018-09-08T19:20:17.837Z,25.30
2018-09-08T19:22:46.360Z,25.30
2018-09-08T19:25:14.641Z,25.20
2018-09-08T19:27:42.944Z,25.20
2018-09-08T19:30:11.320Z,25.20
2018-09-08T19:32:40.025Z,25.20
2018-09-08T19:35:13.823Z,25.10
2018-09-08T19:37:42.287Z,25.10
2018-09-08T19:40:16.328Z,25.10
2018-09-08T19:42:44.693Z,25.10
2018-09-08T19:45:13.005Z,25.00
2018-09-08T19:47:46.785Z,25.00
2018-09-08T19:50:15.060Z,25.00
2018-09-08T19:52:48.767Z,24.90
2018-09-08T19:55:17.096Z,24.90
2018-09-08T19:57:51.106Z,24.90
2018-09-08T20:00:19.524Z,24.80
2018-09-08T20:02:47.973Z,24.80
2018-09-08T20:05:16.280Z,24.70
2018-09-08T20:07:44.963Z,24.70
2018-09-08T20:10:13.349Z,24.70
2018-09-08T20:12:41.873Z,24.70
2018-09-08T20:15:10.351Z,24.70
2018-09-08T20:17:38.733Z,24.60
2018-09-08T20:20:07.400Z,24.60
2018-09-08T20:22:35.891Z,24.60
2018-09-08T20:25:04.566Z,24.50
2018-09-08T20:27:32.954Z,24.50
2018-09-08T20:30:01.349Z,24.40
2018-09-08T20:32:29.711Z,24.40
2018-09-08T20:34:58.099Z,24.30
2018-09-08T20:37:26.545Z,24.30
2018-09-08T20:39:55.127Z,24.20
2018-09-08T20:42:23.640Z,24.10
2018-09-08T20:44:51.940Z,24.00
2018-09-08T20:47:20.570Z,24.00
2018-09-08T20:49:48.907Z,23.90
2018-09-08T20:52:17.261Z,23.90
2018-09-08T20:54:46.134Z,23.80
2018-09-08T20:57:14.472Z,23.80
2018-09-08T20:59:42.852Z,23.80
2018-09-08T21:02:11.261Z,23.80
2018-09-08T21:04:39.680Z,23.80
2018-09-08T21:07:09.382Z,23.70
2018-09-08T21:09:38.477Z,23.70
2018-09-08T21:12:06.905Z,23.70
2018-09-08T21:14:35.830Z,23.60
2018-09-08T21:17:04.636Z,23.60
2018-09-08T21:19:33.025Z,23.60
2018-09-08T21:22:01.680Z,23.60
2018-09-08T21:24:30.576Z,23.50
2018-09-08T21:26:59.216Z,23.40
2018-09-08T21:29:27.530Z,23.40
2018-09-08T21:31:55.898Z,23.30
2018-09-08T21:34:24.219Z,23.30
2018-09-08T21:36:52.571Z,23.30
2018-09-08T21:39:20.979Z,23.30
2018-09-08T21:41:49.477Z,23.40
2018-09-08T21:44:18.151Z,23.40
2018-09-08T21:46:46.429Z,23.30
2018-09-08T21:49:14.735Z,23.30
2018-09-08T21:51:43.427Z,23.20
2018-09-08T21:54:12.126Z,23.20
2018-09-08T21:56:41.461Z,23.20
2018-09-08T21:59:10.580Z,23.20
2018-09-08T22:01:39.411Z,23.10
2018-09-08T22:04:08.144Z,23.10
2018-09-08T22:06:36.517Z,23.10
2018-09-08T22:09:07.848Z,23.10
2018-09-08T22:11:36.606Z,23.10
2018-09-08T22:14:05.227Z,23.10
2018-09-08T22:16:33.805Z,23.10
2018-09-08T22:19:02.455Z,23.10
2018-09-08T22:21:31.036Z,23.10
2018-09-08T22:23:59.393Z,23.10
2018-09-08T22:26:29.047Z,23.10
2018-09-08T22:28:58.361Z,23.00
2018-09-08T22:31:27.062Z,23.00
2018-09-08T22:33:56.296Z,23.00
2018-09-08T22:36:25.438Z,22.90
2018-09-08T22:38:54.336Z,22.90
2018-09-08T22:41:22.847Z,22.80
2018-09-08T22:43:51.268Z,22.80
2018-09-08T22:46:19.672Z,22.80
2018-09-08T22:48:48.225Z,22.80
2018-09-08T22:51:16.645Z,22.70
2018-09-08T22:53:45.259Z,22.70
2018-09-08T22:56:13.600Z,22.60
2018-09-08T22:58:42.248Z,22.60
2018-09-08T23:01:11.277Z,22.60
2018-09-08T23:03:39.999Z,22.60
2018-09-08T23:06:08.884Z,22.50
2018-09-08T23:08:37.341Z,22.50
2018-09-08T23:11:06.225Z,22.50
2018-09-08T23:13:34.740Z,22.50
2018-09-08T23:16:03.585Z,22.40
2018-09-08T23:18:32.080Z,22.40
2018-09-08T23:21:00.720Z,22.40
2018-09-08T23:23:29.329Z,22.30
2018-09-08T23:25:58.028Z,22.30
2018-09-08T23:28:26.504Z,22.30
2018-09-08T23:30:54.935Z,22.20
2018-09-08T23:33:23.327Z,22.20
2018-09-08T23:35:51.839Z,22.30
2018-09-08T23:38:20.596Z,22.30
2018-09-08T23:40:49.031Z,22.30
2018-09-08T23:43:17.716Z,22.30
2018-09-08T23:45:46.407Z,22.20
2018-09-08T23:48:15.309Z,22.10
2018-09-08T23:50:43.813Z,22.10
2018-09-08T23:53:12.268Z,22.10
2018-09-08T23:55:40.691Z,22.10
2018-09-08T23:58:09.329Z,22.10
